sensor_id;sensor_type;location;lat;lon;timestamp;P1;durP1;ratioP1;P2;durP2;ratioP2
46607;SDS011;32330;51.936;7.184;2022-12-18T03:18:17;14.00;;;9.85;;
46607;SDS011;32330;51.936;7.184;2022-12-18T03:20:47;14.27;;;10.27;;
46607;SDS011;32330;51.936;7.184;2022-12-18T03:23:20;14.27;;;9.45;;
46607;SDS011;32330;51.936;7.184;2022-12-18T03:25:50;13.98;;;9.70;;
46607;SDS011;32330;51.936;7.184;2022-12-18T03:28:22;15.40;;;9.32;;
46607;SDS011;32330;51.936;7.184;2022-12-18T03:30:58;15.18;;;9.88;;
46607;SDS011;32330;51.936;7.184;2022-12-18T03:33:29;14.98;;;10.05;;
46607;SDS011;32330;51.936;7.184;2022-12-18T03:36:00;16.65;;;11.68;;
46607;SDS011;32330;51.936;7.184;2022-12-18T03:38:28;15.32;;;9.52;;
46607;SDS011;32330;51.936;7.184;2022-12-18T03:40:58;15.82;;;9.52;;
46607;SDS011;32330;51.936;7.184;2022-12-18T03:43:36;16.65;;;9.93;;
46607;SDS011;32330;51.936;7.184;2022-12-18T03:46:14;13.65;;;9.75;;
46607;SDS011;32330;51.936;7.184;2022-12-18T03:48:56;12.48;;;8.65;;
46607;SDS011;32330;51.936;7.184;2022-12-18T03:51:28;12.43;;;8.45;;
46607;SDS011;32330;51.936;7.184;2022-12-18T03:54:02;16.08;;;10.10;;
46607;SDS011;32330;51.936;7.184;2022-12-18T03:56:37;14.75;;;8.85;;
46607;SDS011;32330;51.936;7.184;2022-12-18T03:59:09;14.02;;;8.70;;
46607;SDS011;32330;51.936;7.184;2022-12-18T04:01:39;15.18;;;9.32;;
46607;SDS011;32330;51.936;7.184;2022-12-18T04:04:13;13.40;;;8.63;;
46607;SDS011;32330;51.936;7.184;2022-12-18T04:06:46;16.55;;;9.68;;
46607;SDS011;32330;51.936;7.184;2022-12-18T04:09:17;15.10;;;8.30;;
46607;SDS011;32330;51.936;7.184;2022-12-18T04:11:46;14.85;;;9.07;;
46607;SDS011;32330;51.936;7.184;2022-12-18T04:14:15;15.65;;;9.43;;
46607;SDS011;32330;51.936;7.184;2022-12-18T04:16:42;13.77;;;8.57;;
46607;SDS011;32330;51.936;7.184;2022-12-18T04:19:13;12.20;;;9.10;;
46607;SDS011;32330;51.936;7.184;2022-12-18T04:21:43;11.57;;;8.10;;
46607;SDS011;32330;51.936;7.184;2022-12-18T04:24:11;13.63;;;8.57;;
46607;SDS011;32330;51.936;7.184;2022-12-18T04:26:44;14.27;;;8.10;;
46607;SDS011;32330;51.936;7.184;2022-12-18T04:29:23;14.93;;;8.90;;
46607;SDS011;32330;51.936;7.184;2022-12-18T04:31:50;12.55;;;7.88;;
46607;SDS011;32330;51.936;7.184;2022-12-18T04:34:19;11.95;;;8.68;;
46607;SDS011;32330;51.936;7.184;2022-12-18T04:36:49;13.50;;;8.20;;
46607;SDS011;32330;51.936;7.184;2022-12-18T04:39:17;9.02;;;6.78;;
46607;SDS011;32330;51.936;7.184;2022-12-18T04:41:45;11.95;;;9.07;;
46607;SDS011;32330;51.936;7.184;2022-12-18T04:44:12;12.70;;;7.72;;
46607;SDS011;32330;51.936;7.184;2022-12-18T04:46:39;13.20;;;7.88;;
46607;SDS011;32330;51.936;7.184;2022-12-18T04:49:06;14.63;;;8.43;;
46607;SDS011;32330;51.936;7.184;2022-12-18T04:51:34;11.57;;;8.07;;
46607;SDS011;32330;51.936;7.184;2022-12-18T04:54:01;12.68;;;8.48;;
46607;SDS011;32330;51.936;7.184;2022-12-18T04:56:30;16.13;;;8.85;;
46607;SDS011;32330;51.936;7.184;2022-12-18T04:58:57;13.80;;;8.55;;
46607;SDS011;32330;51.936;7.184;2022-12-18T05:01:24;10.32;;;7.28;;
46607;SDS011;32330;51.936;7.184;2022-12-18T05:03:51;12.63;;;7.53;;
46607;SDS011;32330;51.936;7.184;2022-12-18T05:06:18;11.60;;;7.45;;
46607;SDS011;32330;51.936;7.184;2022-12-18T05:08:46;13.38;;;7.65;;
46607;SDS011;32330;51.936;7.184;2022-12-18T05:11:14;14.07;;;8.77;;
46607;SDS011;32330;51.936;7.184;2022-12-18T05:13:45;13.57;;;7.55;;
46607;SDS011;32330;51.936;7.184;2022-12-18T05:16:13;13.88;;;8.07;;
46607;SDS011;32330;51.936;7.184;2022-12-18T05:18:40;12.25;;;8.27;;
46607;SDS011;32330;51.936;7.184;2022-12-18T05:21:08;14.50;;;8.95;;
46607;SDS011;32330;51.936;7.184;2022-12-18T05:23:35;15.88;;;8.95;;
46607;SDS011;32330;51.936;7.184;2022-12-18T05:26:04;15.25;;;9.60;;
46607;SDS011;32330;51.936;7.184;2022-12-18T05:28:33;13.13;;;9.27;;
46607;SDS011;32330;51.936;7.184;2022-12-18T05:31:02;15.07;;;10.75;;
46607;SDS011;32330;51.936;7.184;2022-12-18T05:33:30;14.45;;;9.30;;
46607;SDS011;32330;51.936;7.184;2022-12-18T05:35:58;16.73;;;11.07;;
46607;SDS011;32330;51.936;7.184;2022-12-18T05:38:27;16.20;;;10.43;;
46607;SDS011;32330;51.936;7.184;2022-12-18T05:40:54;15.50;;;10.93;;
46607;SDS011;32330;51.936;7.184;2022-12-18T05:43:26;14.55;;;10.82;;
46607;SDS011;32330;51.936;7.184;2022-12-18T05:45:54;16.48;;;10.52;;
46607;SDS011;32330;51.936;7.184;2022-12-18T05:48:22;14.75;;;11.38;;
46607;SDS011;32330;51.936;7.184;2022-12-18T05:50:49;13.80;;;10.93;;
46607;SDS011;32330;51.936;7.184;2022-12-18T05:53:17;14.15;;;11.63;;
46607;SDS011;32330;51.936;7.184;2022-12-18T05:55:46;16.77;;;11.32;;
46607;SDS011;32330;51.936;7.184;2022-12-18T05:58:14;15.88;;;11.52;;
46607;SDS011;32330;51.936;7.184;2022-12-18T06:00:43;17.27;;;11.63;;
46607;SDS011;32330;51.936;7.184;2022-12-18T06:03:12;18.02;;;11.55;;
46607;SDS011;32330;51.936;7.184;2022-12-18T06:05:40;19.08;;;11.60;;
46607;SDS011;32330;51.936;7.184;2022-12-18T06:08:09;17.33;;;10.80;;
46607;SDS011;32330;51.936;7.184;2022-12-18T06:10:36;14.77;;;10.48;;
46607;SDS011;32330;51.936;7.184;2022-12-18T06:13:03;15.90;;;11.57;;
46607;SDS011;32330;51.936;7.184;2022-12-18T06:15:30;13.77;;;11.00;;
46607;SDS011;32330;51.936;7.184;2022-12-18T06:17:59;12.90;;;9.23;;
46607;SDS011;32330;51.936;7.184;2022-12-18T06:20:27;12.90;;;10.50;;
46607;SDS011;32330;51.936;7.184;2022-12-18T06:22:57;15.68;;;10.98;;
46607;SDS011;32330;51.936;7.184;2022-12-18T06:25:24;16.58;;;9.93;;
46607;SDS011;32330;51.936;7.184;2022-12-18T06:27:51;13.57;;;9.52;;
46607;SDS011;32330;51.936;7.184;2022-12-18T06:30:18;18.55;;;10.15;;
46607;SDS011;32330;51.936;7.184;2022-12-18T06:32:45;16.02;;;9.35;;
46607;SDS011;32330;51.936;7.184;2022-12-18T06:35:13;14.88;;;9.85;;
46607;SDS011;32330;51.936;7.184;2022-12-18T06:37:40;13.43;;;9.57;;
46607;SDS011;32330;51.936;7.184;2022-12-18T06:40:07;15.07;;;10.27;;
46607;SDS011;32330;51.936;7.184;2022-12-18T06:42:35;13.95;;;9.73;;
46607;SDS011;32330;51.936;7.184;2022-12-18T06:45:02;14.48;;;10.05;;
46607;SDS011;32330;51.936;7.184;2022-12-18T06:47:29;14.32;;;9.52;;
46607;SDS011;32330;51.936;7.184;2022-12-18T06:49:56;13.82;;;9.68;;
46607;SDS011;32330;51.936;7.184;2022-12-18T06:52:24;15.13;;;9.18;;
46607;SDS011;32330;51.936;7.184;2022-12-18T06:54:51;11.90;;;9.45;;
46607;SDS011;32330;51.936;7.184;2022-12-18T06:57:18;15.20;;;9.75;;
46607;SDS011;32330;51.936;7.184;2022-12-18T06:59:46;12.27;;;8.27;;
46607;SDS011;32330;51.936;7.184;2022-12-18T07:02:13;11.18;;;7.15;;
46607;SDS011;32330;51.936;7.184;2022-12-18T07:04:39;12.98;;;8.13;;
46607;SDS011;32330;51.936;7.184;2022-12-18T07:07:06;11.27;;;7.40;;
46607;SDS011;32330;51.936;7.184;2022-12-18T07:09:35;10.23;;;6.97;;
46607;SDS011;32330;51.936;7.184;2022-12-18T07:12:02;10.38;;;7.95;;
46607;SDS011;32330;51.936;7.184;2022-12-18T07:14:30;16.30;;;7.05;;
46607;SDS011;32330;51.936;7.184;2022-12-18T07:16:57;13.40;;;7.05;;
46607;SDS011;32330;51.936;7.184;2022-12-18T07:19:24;8.75;;;6.20;;
46607;SDS011;32330;51.936;7.184;2022-12-18T07:21:51;10.43;;;6.68;;
46607;SDS011;32330;51.936;7.184;2022-12-18T07:24:18;10.73;;;5.57;;
46607;SDS011;32330;51.936;7.184;2022-12-18T07:26:46;9.43;;;6.63;;
46607;SDS011;32330;51.936;7.184;2022-12-18T07:29:13;10.88;;;6.05;;
46607;SDS011;32330;51.936;7.184;2022-12-18T07:31:40;12.25;;;6.07;;
46607;SDS011;32330;51.936;7.184;2022-12-18T07:34:09;9.15;;;5.38;;
46607;SDS011;32330;51.936;7.184;2022-12-18T07:36:36;9.93;;;5.80;;
46607;SDS011;32330;51.936;7.184;2022-12-18T07:39:03;9.70;;;5.30;;
46607;SDS011;32330;51.936;7.184;2022-12-18T07:41:30;10.93;;;5.93;;
46607;SDS011;32330;51.936;7.184;2022-12-18T07:44:09;8.68;;;5.63;;
46607;SDS011;32330;51.936;7.184;2022-12-18T07:46:36;8.43;;;5.63;;
46607;SDS011;32330;51.936;7.184;2022-12-18T07:49:04;10.55;;;6.22;;
46607;SDS011;32330;51.936;7.184;2022-12-18T07:51:31;11.25;;;5.63;;
46607;SDS011;32330;51.936;7.184;2022-12-18T07:53:57;8.15;;;5.38;;
46607;SDS011;32330;51.936;7.184;2022-12-18T07:56:24;10.48;;;6.40;;
46607;SDS011;32330;51.936;7.184;2022-12-18T07:58:51;9.23;;;5.43;;
46607;SDS011;32330;51.936;7.184;2022-12-18T08:01:20;7.93;;;4.85;;
46607;SDS011;32330;51.936;7.184;2022-12-18T08:03:47;8.55;;;5.72;;
46607;SDS011;32330;51.936;7.184;2022-12-18T08:06:13;10.98;;;5.63;;
46607;SDS011;32330;51.936;7.184;2022-12-18T08:08:40;8.38;;;6.07;;
46607;SDS011;32330;51.936;7.184;2022-12-18T08:11:07;8.45;;;5.60;;
46607;SDS011;32330;51.936;7.184;2022-12-18T08:13:34;8.93;;;6.32;;
46607;SDS011;32330;51.936;7.184;2022-12-18T08:16:02;10.70;;;6.15;;
46607;SDS011;32330;51.936;7.184;2022-12-18T08:18:33;9.27;;;5.30;;
46607;SDS011;32330;51.936;7.184;2022-12-18T08:21:07;9.18;;;5.72;;
46607;SDS011;32330;51.936;7.184;2022-12-18T08:23:34;9.07;;;5.90;;
46607;SDS011;32330;51.936;7.184;2022-12-18T08:26:01;9.73;;;5.80;;
46607;SDS011;32330;51.936;7.184;2022-12-18T08:28:28;8.77;;;6.20;;
46607;SDS011;32330;51.936;7.184;2022-12-18T08:30:55;9.18;;;5.95;;
46607;SDS011;32330;51.936;7.184;2022-12-18T08:33:22;8.55;;;5.80;;
46607;SDS011;32330;51.936;7.184;2022-12-18T08:35:50;10.48;;;7.35;;
46607;SDS011;32330;51.936;7.184;2022-12-18T08:38:17;16.02;;;8.77;;
46607;SDS011;32330;51.936;7.184;2022-12-18T08:40:44;11.60;;;7.05;;
46607;SDS011;32330;51.936;7.184;2022-12-18T08:43:11;11.80;;;6.93;;
46607;SDS011;32330;51.936;7.184;2022-12-18T08:45:56;11.57;;;7.05;;
46607;SDS011;32330;51.936;7.184;2022-12-18T08:48:23;8.23;;;5.78;;
46607;SDS011;32330;51.936;7.184;2022-12-18T08:50:54;8.25;;;4.82;;
46607;SDS011;32330;51.936;7.184;2022-12-18T08:55:49;11.00;;;6.57;;
46607;SDS011;32330;51.936;7.184;2022-12-18T08:58:16;8.88;;;5.68;;
46607;SDS011;32330;51.936;7.184;2022-12-18T09:00:43;9.13;;;5.85;;
46607;SDS011;32330;51.936;7.184;2022-12-18T09:03:10;9.63;;;5.53;;
46607;SDS011;32330;51.936;7.184;2022-12-18T09:05:38;8.82;;;6.68;;
46607;SDS011;32330;51.936;7.184;2022-12-18T09:08:06;9.38;;;6.35;;
46607;SDS011;32330;51.936;7.184;2022-12-18T09:10:33;9.27;;;6.00;;
46607;SDS011;32330;51.936;7.184;2022-12-18T09:13:00;8.63;;;6.03;;
46607;SDS011;32330;51.936;7.184;2022-12-18T09:15:27;8.45;;;5.32;;
46607;SDS011;32330;51.936;7.184;2022-12-18T09:17:54;8.77;;;5.55;;
46607;SDS011;32330;51.936;7.184;2022-12-18T09:20:21;8.75;;;5.65;;
46607;SDS011;32330;51.936;7.184;2022-12-18T09:22:47;10.95;;;6.65;;
46607;SDS011;32330;51.936;7.184;2022-12-18T09:25:16;10.38;;;5.55;;
46607;SDS011;32330;51.936;7.184;2022-12-18T09:27:43;9.38;;;6.10;;
46607;SDS011;32330;51.936;7.184;2022-12-18T09:30:13;10.27;;;5.97;;
46607;SDS011;32330;51.936;7.184;2022-12-18T09:32:39;8.23;;;6.07;;
46607;SDS011;32330;51.936;7.184;2022-12-18T09:35:07;8.15;;;5.78;;
46607;SDS011;32330;51.936;7.184;2022-12-18T09:37:34;8.75;;;6.18;;
46607;SDS011;32330;51.936;7.184;2022-12-18T09:40:00;11.07;;;5.97;;
46607;SDS011;32330;51.936;7.184;2022-12-18T09:42:29;9.38;;;5.80;;
46607;SDS011;32330;51.936;7.184;2022-12-18T09:44:57;9.43;;;6.88;;
46607;SDS011;32330;51.936;7.184;2022-12-18T09:47:26;9.93;;;6.65;;
46607;SDS011;32330;51.936;7.184;2022-12-18T09:49:58;9.13;;;6.45;;
46607;SDS011;32330;51.936;7.184;2022-12-18T09:52:28;11.07;;;6.47;;
46607;SDS011;32330;51.936;7.184;2022-12-18T09:55:01;10.02;;;7.35;;
46607;SDS011;32330;51.936;7.184;2022-12-18T09:57:34;10.15;;;6.70;;
46607;SDS011;32330;51.936;7.184;2022-12-18T10:05:28;8.07;;;5.43;;
46607;SDS011;32330;51.936;7.184;2022-12-18T10:08:02;11.85;;;6.38;;
46607;SDS011;32330;51.936;7.184;2022-12-18T10:10:37;9.18;;;6.22;;
46607;SDS011;32330;51.936;7.184;2022-12-18T10:13:12;8.40;;;5.60;;
46607;SDS011;32330;51.936;7.184;2022-12-18T10:15:50;9.40;;;6.20;;
46607;SDS011;32330;51.936;7.184;2022-12-18T10:18:27;9.15;;;6.03;;
46607;SDS011;32330;51.936;7.184;2022-12-18T10:21:03;8.30;;;5.47;;
46607;SDS011;32330;51.936;7.184;2022-12-18T10:23:37;9.35;;;5.53;;
46607;SDS011;32330;51.936;7.184;2022-12-18T10:26:10;6.65;;;5.10;;
46607;SDS011;32330;51.936;7.184;2022-12-18T10:28:39;10.43;;;6.68;;
46607;SDS011;32330;51.936;7.184;2022-12-18T10:31:07;8.57;;;5.60;;
46607;SDS011;32330;51.936;7.184;2022-12-18T10:33:42;11.55;;;7.03;;
46607;SDS011;32330;51.936;7.184;2022-12-18T10:36:09;12.82;;;8.40;;
46607;SDS011;32330;51.936;7.184;2022-12-18T10:38:36;9.13;;;6.20;;
46607;SDS011;32330;51.936;7.184;2022-12-18T10:41:04;11.80;;;8.07;;
46607;SDS011;32330;51.936;7.184;2022-12-18T10:43:35;9.57;;;6.57;;
46607;SDS011;32330;51.936;7.184;2022-12-18T10:46:14;11.27;;;6.68;;
46607;SDS011;32330;51.936;7.184;2022-12-18T10:48:48;9.18;;;6.65;;
46607;SDS011;32330;51.936;7.184;2022-12-18T10:51:22;7.93;;;5.32;;
46607;SDS011;32330;51.936;7.184;2022-12-18T10:53:52;10.27;;;6.82;;
46607;SDS011;32330;51.936;7.184;2022-12-18T10:56:22;13.77;;;8.57;;
46607;SDS011;32330;51.936;7.184;2022-12-18T10:58:55;8.30;;;5.28;;
46607;SDS011;32330;51.936;7.184;2022-12-18T11:01:25;8.00;;;5.28;;
46607;SDS011;32330;51.936;7.184;2022-12-18T11:04:00;8.25;;;5.55;;
46607;SDS011;32330;51.936;7.184;2022-12-18T11:06:33;8.88;;;5.20;;
46607;SDS011;32330;51.936;7.184;2022-12-18T11:09:19;8.00;;;4.88;;
46607;SDS011;32330;51.936;7.184;2022-12-18T11:11:48;7.07;;;4.50;;
46607;SDS011;32330;51.936;7.184;2022-12-18T11:14:18;7.35;;;5.03;;
46607;SDS011;32330;51.936;7.184;2022-12-18T11:16:50;8.48;;;5.05;;
46607;SDS011;32330;51.936;7.184;2022-12-18T11:19:26;7.38;;;4.95;;
46607;SDS011;32330;51.936;7.184;2022-12-18T11:21:58;7.55;;;4.80;;
46607;SDS011;32330;51.936;7.184;2022-12-18T11:24:27;7.22;;;4.45;;
46607;SDS011;32330;51.936;7.184;2022-12-18T11:26:57;7.00;;;4.40;;
46607;SDS011;32330;51.936;7.184;2022-12-18T11:29:28;7.40;;;5.07;;
46607;SDS011;32330;51.936;7.184;2022-12-18T11:34:52;7.22;;;5.35;;
46607;SDS011;32330;51.936;7.184;2022-12-18T11:37:24;6.90;;;4.50;;
46607;SDS011;32330;51.936;7.184;2022-12-18T11:39:51;6.80;;;4.82;;
46607;SDS011;32330;51.936;7.184;2022-12-18T11:42:24;7.72;;;4.57;;
46607;SDS011;32330;51.936;7.184;2022-12-18T11:44:57;6.03;;;4.03;;
46607;SDS011;32330;51.936;7.184;2022-12-18T11:47:31;5.80;;;4.45;;
46607;SDS011;32330;51.936;7.184;2022-12-18T11:50:08;6.53;;;4.45;;
46607;SDS011;32330;51.936;7.184;2022-12-18T11:52:40;8.98;;;4.85;;
46607;SDS011;32330;51.936;7.184;2022-12-18T11:55:10;8.27;;;5.15;;
46607;SDS011;32330;51.936;7.184;2022-12-18T11:57:41;9.35;;;6.45;;
46607;SDS011;32330;51.936;7.184;2022-12-18T12:00:18;7.07;;;4.85;;
46607;SDS011;32330;51.936;7.184;2022-12-18T12:02:53;7.53;;;4.75;;
46607;SDS011;32330;51.936;7.184;2022-12-18T12:05:38;8.90;;;5.72;;
46607;SDS011;32330;51.936;7.184;2022-12-18T12:08:19;6.28;;;4.70;;
46607;SDS011;32330;51.936;7.184;2022-12-18T12:10:55;7.25;;;4.40;;
46607;SDS011;32330;51.936;7.184;2022-12-18T12:13:39;7.57;;;4.75;;
46607;SDS011;32330;51.936;7.184;2022-12-18T12:16:15;7.25;;;4.85;;
46607;SDS011;32330;51.936;7.184;2022-12-18T12:18:59;8.35;;;4.30;;
46607;SDS011;32330;51.936;7.184;2022-12-18T12:21:39;6.35;;;4.10;;
46607;SDS011;32330;51.936;7.184;2022-12-18T12:24:21;7.75;;;4.40;;
46607;SDS011;32330;51.936;7.184;2022-12-18T12:27:00;8.63;;;6.25;;
46607;SDS011;32330;51.936;7.184;2022-12-18T12:29:35;5.55;;;4.32;;
46607;SDS011;32330;51.936;7.184;2022-12-18T12:32:16;6.45;;;4.53;;
46607;SDS011;32330;51.936;7.184;2022-12-18T12:34:57;5.85;;;4.13;;
46607;SDS011;32330;51.936;7.184;2022-12-18T12:37:37;6.90;;;4.80;;
46607;SDS011;32330;51.936;7.184;2022-12-18T12:40:12;7.70;;;5.35;;
46607;SDS011;32330;51.936;7.184;2022-12-18T12:42:47;6.38;;;4.63;;
46607;SDS011;32330;51.936;7.184;2022-12-18T12:45:37;6.40;;;4.10;;
46607;SDS011;32330;51.936;7.184;2022-12-18T12:48:15;4.63;;;3.65;;
46607;SDS011;32330;51.936;7.184;2022-12-18T12:50:47;6.75;;;4.78;;
46607;SDS011;32330;51.936;7.184;2022-12-18T12:53:23;5.35;;;4.20;;
46607;SDS011;32330;51.936;7.184;2022-12-18T12:55:55;6.32;;;4.53;;
46607;SDS011;32330;51.936;7.184;2022-12-18T12:58:26;6.95;;;4.60;;
46607;SDS011;32330;51.936;7.184;2022-12-18T13:01:02;8.15;;;4.93;;
46607;SDS011;32330;51.936;7.184;2022-12-18T13:03:40;9.13;;;5.40;;
46607;SDS011;32330;51.936;7.184;2022-12-18T13:06:16;6.57;;;4.85;;
46607;SDS011;32330;51.936;7.184;2022-12-18T13:08:54;6.40;;;4.63;;
46607;SDS011;32330;51.936;7.184;2022-12-18T13:11:30;7.00;;;4.80;;
46607;SDS011;32330;51.936;7.184;2022-12-18T13:14:23;7.05;;;5.07;;
46607;SDS011;32330;51.936;7.184;2022-12-18T13:17:03;7.55;;;5.00;;
46607;SDS011;32330;51.936;7.184;2022-12-18T13:19:41;7.85;;;4.50;;
46607;SDS011;32330;51.936;7.184;2022-12-18T13:22:21;7.30;;;5.10;;
46607;SDS011;32330;51.936;7.184;2022-12-18T13:24:50;7.35;;;5.10;;
46607;SDS011;32330;51.936;7.184;2022-12-18T13:30:43;8.02;;;5.60;;
46607;SDS011;32330;51.936;7.184;2022-12-18T13:36:23;9.90;;;6.43;;
46607;SDS011;32330;51.936;7.184;2022-12-18T13:48:26;9.25;;;6.90;;
46607;SDS011;32330;51.936;7.184;2022-12-18T13:50:57;10.00;;;6.60;;
46607;SDS011;32330;51.936;7.184;2022-12-18T13:53:27;7.47;;;6.00;;
46607;SDS011;32330;51.936;7.184;2022-12-18T13:55:58;7.90;;;6.85;;
46607;SDS011;32330;51.936;7.184;2022-12-18T13:58:25;7.50;;;6.30;;
46607;SDS011;32330;51.936;7.184;2022-12-18T14:00:52;8.38;;;5.95;;
46607;SDS011;32330;51.936;7.184;2022-12-18T14:03:20;9.60;;;6.60;;
46607;SDS011;32330;51.936;7.184;2022-12-18T14:05:52;12.02;;;8.25;;
46607;SDS011;32330;51.936;7.184;2022-12-18T14:08:27;10.45;;;7.72;;
46607;SDS011;32330;51.936;7.184;2022-12-18T14:11:00;10.38;;;7.03;;
46607;SDS011;32330;51.936;7.184;2022-12-18T14:13:30;10.60;;;7.47;;
46607;SDS011;32330;51.936;7.184;2022-12-18T14:15:59;9.70;;;7.05;;
46607;SDS011;32330;51.936;7.184;2022-12-18T14:18:29;8.93;;;6.43;;
46607;SDS011;32330;51.936;7.184;2022-12-18T14:21:02;8.10;;;6.35;;
46607;SDS011;32330;51.936;7.184;2022-12-18T14:23:32;7.72;;;6.00;;
46607;SDS011;32330;51.936;7.184;2022-12-18T14:26:03;8.55;;;6.28;;
46607;SDS011;32330;51.936;7.184;2022-12-18T14:28:49;8.82;;;6.03;;
46607;SDS011;32330;51.936;7.184;2022-12-18T14:31:17;9.13;;;6.38;;
46607;SDS011;32330;51.936;7.184;2022-12-18T14:33:45;8.80;;;5.82;;
46607;SDS011;32330;51.936;7.184;2022-12-18T14:36:14;9.52;;;6.70;;
46607;SDS011;32330;51.936;7.184;2022-12-18T14:38:43;10.75;;;7.22;;
46607;SDS011;32330;51.936;7.184;2022-12-18T14:41:15;10.30;;;7.43;;
46607;SDS011;32330;51.936;7.184;2022-12-18T14:43:44;6.47;;;5.32;;
46607;SDS011;32330;51.936;7.184;2022-12-18T14:49:00;8.73;;;6.10;;
46607;SDS011;32330;51.936;7.184;2022-12-18T14:51:29;8.75;;;5.70;;
46607;SDS011;32330;51.936;7.184;2022-12-18T14:53:59;7.60;;;5.70;;
46607;SDS011;32330;51.936;7.184;2022-12-18T14:56:30;8.43;;;5.70;;
46607;SDS011;32330;51.936;7.184;2022-12-18T14:58:59;9.73;;;6.30;;
46607;SDS011;32330;51.936;7.184;2022-12-18T15:01:28;12.30;;;6.95;;
46607;SDS011;32330;51.936;7.184;2022-12-18T15:03:59;10.55;;;6.07;;
46607;SDS011;32330;51.936;7.184;2022-12-18T15:06:29;9.23;;;5.90;;
46607;SDS011;32330;51.936;7.184;2022-12-18T15:08:58;10.00;;;6.35;;
46607;SDS011;32330;51.936;7.184;2022-12-18T15:11:27;9.60;;;6.32;;
46607;SDS011;32330;51.936;7.184;2022-12-18T15:14:00;8.38;;;6.05;;
46607;SDS011;32330;51.936;7.184;2022-12-18T15:16:42;8.00;;;5.68;;
46607;SDS011;32330;51.936;7.184;2022-12-18T15:19:09;8.15;;;6.07;;
46607;SDS011;32330;51.936;7.184;2022-12-18T15:21:36;9.27;;;6.38;;
46607;SDS011;32330;51.936;7.184;2022-12-18T15:24:13;9.43;;;6.97;;
46607;SDS011;32330;51.936;7.184;2022-12-18T15:26:45;14.20;;;8.52;;
46607;SDS011;32330;51.936;7.184;2022-12-18T15:29:15;17.33;;;11.23;;
46607;SDS011;32330;51.936;7.184;2022-12-18T15:32:03;11.25;;;8.30;;
46607;SDS011;32330;51.936;7.184;2022-12-18T15:34:31;12.98;;;8.15;;
46607;SDS011;32330;51.936;7.184;2022-12-18T15:36:59;11.60;;;7.53;;
46607;SDS011;32330;51.936;7.184;2022-12-18T15:39:26;11.05;;;7.32;;
46607;SDS011;32330;51.936;7.184;2022-12-18T15:41:55;12.05;;;7.35;;
46607;SDS011;32330;51.936;7.184;2022-12-18T15:44:39;11.60;;;7.72;;
46607;SDS011;32330;51.936;7.184;2022-12-18T15:47:09;12.70;;;7.25;;
46607;SDS011;32330;51.936;7.184;2022-12-18T15:49:38;13.27;;;8.20;;
46607;SDS011;32330;51.936;7.184;2022-12-18T15:52:05;17.63;;;9.43;;
46607;SDS011;32330;51.936;7.184;2022-12-18T15:54:32;11.80;;;7.35;;
46607;SDS011;32330;51.936;7.184;2022-12-18T15:57:18;9.38;;;6.60;;
46607;SDS011;32330;51.936;7.184;2022-12-18T15:59:52;11.98;;;7.18;;
46607;SDS011;32330;51.936;7.184;2022-12-18T16:02:21;10.02;;;6.97;;
46607;SDS011;32330;51.936;7.184;2022-12-18T16:04:49;10.15;;;7.57;;
46607;SDS011;32330;51.936;7.184;2022-12-18T16:07:17;10.60;;;8.52;;
46607;SDS011;32330;51.936;7.184;2022-12-18T16:09:47;9.48;;;6.88;;
46607;SDS011;32330;51.936;7.184;2022-12-18T16:12:15;9.35;;;7.15;;
46607;SDS011;32330;51.936;7.184;2022-12-18T16:14:45;9.18;;;6.43;;
46607;SDS011;32330;51.936;7.184;2022-12-18T16:17:13;11.27;;;7.32;;
46607;SDS011;32330;51.936;7.184;2022-12-18T16:19:43;9.98;;;6.72;;
46607;SDS011;32330;51.936;7.184;2022-12-18T16:22:15;11.43;;;6.97;;
46607;SDS011;32330;51.936;7.184;2022-12-18T16:24:47;13.25;;;8.10;;
46607;SDS011;32330;51.936;7.184;2022-12-18T16:27:14;10.50;;;7.05;;
46607;SDS011;32330;51.936;7.184;2022-12-18T16:29:41;10.50;;;7.40;;
46607;SDS011;32330;51.936;7.184;2022-12-18T16:32:10;9.52;;;7.38;;
46607;SDS011;32330;51.936;7.184;2022-12-18T16:37:07;10.20;;;7.25;;
46607;SDS011;32330;51.936;7.184;2022-12-18T16:39:35;9.05;;;6.90;;
46607;SDS011;32330;51.936;7.184;2022-12-18T16:42:04;9.65;;;7.47;;
46607;SDS011;32330;51.936;7.184;2022-12-18T16:44:33;11.40;;;7.75;;
46607;SDS011;32330;51.936;7.184;2022-12-18T16:47:00;9.38;;;7.47;;
46607;SDS011;32330;51.936;7.184;2022-12-18T16:49:29;10.77;;;8.35;;
46607;SDS011;32330;51.936;7.184;2022-12-18T16:51:56;10.85;;;8.10;;
46607;SDS011;32330;51.936;7.184;2022-12-18T16:54:26;12.82;;;8.77;;
46607;SDS011;32330;51.936;7.184;2022-12-18T16:56:54;11.70;;;8.30;;
46607;SDS011;32330;51.936;7.184;2022-12-18T16:59:21;10.23;;;7.45;;
46607;SDS011;32330;51.936;7.184;2022-12-18T17:01:50;13.27;;;9.55;;
46607;SDS011;32330;51.936;7.184;2022-12-18T17:04:17;10.98;;;8.05;;
46607;SDS011;32330;51.936;7.184;2022-12-18T17:06:45;11.57;;;8.05;;
46607;SDS011;32330;51.936;7.184;2022-12-18T17:09:16;9.38;;;7.07;;
46607;SDS011;32330;51.936;7.184;2022-12-18T17:11:45;10.95;;;8.32;;
46607;SDS011;32330;51.936;7.184;2022-12-18T17:14:13;10.15;;;7.68;;
46607;SDS011;32330;51.936;7.184;2022-12-18T17:16:41;11.45;;;9.05;;
46607;SDS011;32330;51.936;7.184;2022-12-18T17:19:08;11.85;;;8.60;;
46607;SDS011;32330;51.936;7.184;2022-12-18T17:21:35;14.02;;;9.98;;
46607;SDS011;32330;51.936;7.184;2022-12-18T17:24:04;14.07;;;8.25;;
46607;SDS011;32330;51.936;7.184;2022-12-18T17:26:31;14.50;;;9.25;;
46607;SDS011;32330;51.936;7.184;2022-12-18T17:28:58;14.73;;;8.93;;
46607;SDS011;32330;51.936;7.184;2022-12-18T17:31:26;16.33;;;10.68;;
46607;SDS011;32330;51.936;7.184;2022-12-18T17:33:54;14.40;;;10.15;;
46607;SDS011;32330;51.936;7.184;2022-12-18T17:36:22;15.50;;;10.95;;
46607;SDS011;32330;51.936;7.184;2022-12-18T17:38:53;13.75;;;9.75;;
46607;SDS011;32330;51.936;7.184;2022-12-18T17:41:22;13.30;;;9.48;;
46607;SDS011;32330;51.936;7.184;2022-12-18T17:43:50;12.85;;;8.98;;
46607;SDS011;32330;51.936;7.184;2022-12-18T17:46:17;13.55;;;10.27;;
46607;SDS011;32330;51.936;7.184;2022-12-18T17:48:44;12.45;;;9.50;;
46607;SDS011;32330;51.936;7.184;2022-12-18T17:51:12;13.60;;;9.80;;
46607;SDS011;32330;51.936;7.184;2022-12-18T17:53:42;14.52;;;9.82;;
46607;SDS011;32330;51.936;7.184;2022-12-18T17:56:11;14.88;;;10.13;;
46607;SDS011;32330;51.936;7.184;2022-12-18T17:58:40;15.45;;;9.65;;
46607;SDS011;32330;51.936;7.184;2022-12-18T18:01:08;14.65;;;10.50;;
46607;SDS011;32330;51.936;7.184;2022-12-18T18:03:36;14.98;;;10.73;;
46607;SDS011;32330;51.936;7.184;2022-12-18T18:06:03;15.15;;;10.88;;
46607;SDS011;32330;51.936;7.184;2022-12-18T18:08:30;19.25;;;15.60;;
46607;SDS011;32330;51.936;7.184;2022-12-18T18:10:57;16.15;;;11.30;;
46607;SDS011;32330;51.936;7.184;2022-12-18T18:13:46;14.90;;;10.88;;
46607;SDS011;32330;51.936;7.184;2022-12-18T18:16:29;19.45;;;14.60;;
46607;SDS011;32330;51.936;7.184;2022-12-18T18:19:00;16.00;;;12.43;;
46607;SDS011;32330;51.936;7.184;2022-12-18T18:21:29;17.60;;;11.80;;
46607;SDS011;32330;51.936;7.184;2022-12-18T18:23:57;17.90;;;12.30;;
46607;SDS011;32330;51.936;7.184;2022-12-18T18:26:26;24.38;;;14.55;;
46607;SDS011;32330;51.936;7.184;2022-12-18T18:28:57;20.45;;;14.45;;
46607;SDS011;32330;51.936;7.184;2022-12-18T18:31:25;21.67;;;15.40;;
46607;SDS011;32330;51.936;7.184;2022-12-18T18:33:52;22.42;;;13.88;;
46607;SDS011;32330;51.936;7.184;2022-12-18T18:36:20;22.73;;;14.05;;
46607;SDS011;32330;51.936;7.184;2022-12-18T18:38:50;21.00;;;13.63;;
46607;SDS011;32330;51.936;7.184;2022-12-18T18:41:18;20.15;;;13.73;;
46607;SDS011;32330;51.936;7.184;2022-12-18T18:43:46;22.30;;;13.95;;
46607;SDS011;32330;51.936;7.184;2022-12-18T18:46:15;23.92;;;15.52;;